createdAt,value
2023-01-11T00:00:48.518Z,5.15
2023-01-11T00:03:15.461Z,4.55
2023-01-11T00:05:42.615Z,6.70
2023-01-11T00:08:09.554Z,5.10
2023-01-11T00:10:36.472Z,4.65
2023-01-11T00:13:03.417Z,4.78
2023-01-11T00:15:30.294Z,4.60
2023-01-11T00:17:57.763Z,4.82
2023-01-11T00:20:24.886Z,4.40
2023-01-11T00:22:51.782Z,6.03
2023-01-11T00:25:18.556Z,5.82
2023-01-11T00:27:47.197Z,7.32
2023-01-11T00:30:14.074Z,6.13
2023-01-11T00:32:40.836Z,7.30
2023-01-11T00:35:08.436Z,7.50
2023-01-11T00:37:35.307Z,4.82
2023-01-11T00:40:02.054Z,5.47
2023-01-11T00:42:47.514Z,4.32
2023-01-11T00:45:32.470Z,5.18
2023-01-11T00:48:04.763Z,5.38
2023-01-11T00:50:36.549Z,5.15
2023-01-11T00:53:03.601Z,6.70
2023-01-11T00:55:31.971Z,4.05
2023-01-11T00:57:59.076Z,6.25
2023-01-11T01:00:26.018Z,3.90
2023-01-11T01:02:52.851Z,4.43
2023-01-11T01:05:19.739Z,5.00
2023-01-11T01:07:46.566Z,4.15
2023-01-11T01:10:14.284Z,3.63
2023-01-11T01:12:59.367Z,4.20
2023-01-11T01:15:26.184Z,3.80
2023-01-11T01:17:54.910Z,4.57
2023-01-11T01:20:22.546Z,3.20
2023-01-11T01:22:49.385Z,3.20
2023-01-11T01:25:16.454Z,3.88
2023-01-11T01:27:43.141Z,6.88
2023-01-11T01:30:10.482Z,3.45
2023-01-11T01:32:37.265Z,3.38
2023-01-11T01:35:04.123Z,3.30
2023-01-11T01:37:30.913Z,3.22
2023-01-11T01:39:57.644Z,2.75
2023-01-11T01:42:24.488Z,3.13
2023-01-11T01:45:02.625Z,3.13
2023-01-11T01:47:32.131Z,3.15
2023-01-11T01:50:00.709Z,4.63
2023-01-11T01:52:29.331Z,3.08
2023-01-11T01:54:57.839Z,3.15
2023-01-11T01:57:26.366Z,2.88
2023-01-11T01:59:53.111Z,3.58
2023-01-11T02:02:20.594Z,2.50
2023-01-11T02:04:47.488Z,2.40
2023-01-11T02:07:16.631Z,2.20
2023-01-11T02:09:59.364Z,2.15
2023-01-11T02:12:28.214Z,2.25
2023-01-11T02:14:56.147Z,2.65
2023-01-11T02:17:24.367Z,2.78
2023-01-11T02:20:14.126Z,2.42
2023-01-11T02:22:54.712Z,2.35
2023-01-11T02:25:55.290Z,2.30
2023-01-11T02:28:24.874Z,2.95
2023-01-11T02:31:12.047Z,2.72
2023-01-11T02:34:04.917Z,2.70
2023-01-11T02:36:57.175Z,2.22
2023-01-11T02:39:31.003Z,2.30
2023-01-11T02:43:01.988Z,2.50
2023-01-11T02:45:31.706Z,6.28
2023-01-11T02:48:27.447Z,2.25
2023-01-11T02:51:10.077Z,3.10
2023-01-11T02:53:57.161Z,2.00
2023-01-11T02:56:25.722Z,2.33
2023-01-11T02:58:53.485Z,2.10
2023-01-11T03:01:22.652Z,2.13
2023-01-11T03:03:50.295Z,2.05
2023-01-11T03:06:24.367Z,2.63
2023-01-11T03:09:09.624Z,2.30
2023-01-11T03:12:30.161Z,2.30
2023-01-11T03:15:21.873Z,1.88
2023-01-11T03:18:16.312Z,1.90
2023-01-11T03:20:46.969Z,1.92
2023-01-11T03:23:39.198Z,3.20
2023-01-11T03:26:23.789Z,2.00
2023-01-11T03:29:03.409Z,2.40
2023-01-11T03:31:49.488Z,1.83
2023-01-11T03:34:18.109Z,1.80
2023-01-11T03:37:09.644Z,2.30
2023-01-11T03:39:44.699Z,2.35
2023-01-11T03:42:13.309Z,1.80
2023-01-11T03:44:43.165Z,2.20
2023-01-11T03:47:11.342Z,2.10
2023-01-11T03:49:45.711Z,1.80
2023-01-11T03:52:12.712Z,2.30
2023-01-11T03:54:39.527Z,1.90
2023-01-11T03:57:11.781Z,2.47
2023-01-11T03:59:38.915Z,1.75
2023-01-11T04:02:05.630Z,1.90
2023-01-11T04:04:32.453Z,1.52
2023-01-11T04:06:59.252Z,1.80
2023-01-11T04:09:26.017Z,2.08
2023-01-11T04:11:52.728Z,2.13
2023-01-11T04:14:19.493Z,1.73
2023-01-11T04:16:46.367Z,2.17
2023-01-11T04:19:13.091Z,2.08
2023-01-11T04:21:39.899Z,2.10
2023-01-11T04:24:06.975Z,1.98
2023-01-11T04:26:34.073Z,2.25
2023-01-11T04:29:00.854Z,2.00
2023-01-11T04:31:27.618Z,2.90
2023-01-11T04:33:54.412Z,1.60
2023-01-11T04:36:21.269Z,2.10
2023-01-11T04:38:48.042Z,1.80
2023-01-11T04:41:33.188Z,1.70
2023-01-11T04:44:00.077Z,1.83
2023-01-11T04:46:26.835Z,2.03
2023-01-11T04:48:53.685Z,1.80
2023-01-11T04:51:20.454Z,1.98
2023-01-11T04:53:49.150Z,2.20
2023-01-11T04:56:15.959Z,1.88
2023-01-11T04:58:42.897Z,1.73
2023-01-11T05:01:15.691Z,2.25
2023-01-11T05:03:42.696Z,1.60
2023-01-11T05:06:09.645Z,2.25
2023-01-11T05:08:36.510Z,1.50
2023-01-11T05:11:04.769Z,2.00
2023-01-11T05:13:44.022Z,2.10
2023-01-11T05:16:17.912Z,1.80
2023-01-11T05:18:49.443Z,4.72
2023-01-11T05:21:17.536Z,2.75
2023-01-11T05:23:44.341Z,1.70
2023-01-11T05:26:17.509Z,1.77
2023-01-11T05:28:44.975Z,2.03
2023-01-11T05:31:11.750Z,2.10
2023-01-11T05:33:38.598Z,1.73
2023-01-11T05:36:10.341Z,1.90
2023-01-11T05:38:37.129Z,2.00
2023-01-11T05:41:05.690Z,1.95
2023-01-11T05:43:32.975Z,2.00
2023-01-11T05:46:00.505Z,2.55
2023-01-11T05:48:27.304Z,1.80
2023-01-11T05:50:54.631Z,1.92
2023-01-11T05:53:22.563Z,2.67
2023-01-11T05:55:56.286Z,1.83
2023-01-11T05:58:25.753Z,1.80
2023-01-11T06:00:54.364Z,1.60
2023-01-11T06:03:21.717Z,1.92
2023-01-11T06:05:48.562Z,2.33
2023-01-11T06:08:15.292Z,2.33
2023-01-11T06:10:42.036Z,2.45
2023-01-11T06:13:27.201Z,2.20
2023-01-11T06:16:00.485Z,1.50
2023-01-11T06:18:28.406Z,2.10
2023-01-11T06:20:55.250Z,2.15
2023-01-11T06:23:22.315Z,1.95
2023-01-11T06:25:49.102Z,1.55
2023-01-11T06:28:15.882Z,1.73
2023-01-11T06:30:42.669Z,1.70
2023-01-11T06:33:09.405Z,2.05
2023-01-11T06:35:40.185Z,2.33
2023-01-11T06:38:08.111Z,1.92
2023-01-11T06:40:35.270Z,1.95
2023-01-11T06:43:02.001Z,2.30
2023-01-11T06:45:28.851Z,2.35
2023-01-11T06:47:55.631Z,2.10
2023-01-11T06:50:22.641Z,3.17
2023-01-11T06:52:59.658Z,2.38
2023-01-11T06:55:26.882Z,2.50
2023-01-11T06:57:53.696Z,2.33
2023-01-11T07:00:20.788Z,2.20
2023-01-11T07:02:47.801Z,1.60
2023-01-11T07:05:15.693Z,2.20
2023-01-11T07:07:43.425Z,2.30
2023-01-11T07:10:12.249Z,2.50
2023-01-11T07:12:39.165Z,2.50
2023-01-11T07:15:07.042Z,2.70
2023-01-11T07:17:33.872Z,2.70
2023-01-11T07:20:00.643Z,3.40
2023-01-11T07:22:27.812Z,3.13
2023-01-11T07:24:54.611Z,3.08
2023-01-11T07:27:21.378Z,3.40
2023-01-11T07:29:48.194Z,2.95
2023-01-11T07:32:15.022Z,3.38
2023-01-11T07:34:41.806Z,3.92
2023-01-11T07:37:09.591Z,3.58
2023-01-11T07:39:55.947Z,3.92
2023-01-11T07:42:41.210Z,2.88
2023-01-11T07:45:08.573Z,5.35
2023-01-11T07:47:35.367Z,3.15
2023-01-11T07:50:02.223Z,2.60
2023-01-11T07:52:29.153Z,2.88
2023-01-11T07:55:02.149Z,2.30
2023-01-11T07:57:29.967Z,2.35
2023-01-11T07:59:56.782Z,2.60
2023-01-11T08:02:23.585Z,2.20
2023-01-11T08:04:50.538Z,2.15
2023-01-11T08:07:17.394Z,2.35
2023-01-11T08:09:44.199Z,2.20
2023-01-11T08:12:29.384Z,2.40
2023-01-11T08:14:56.133Z,1.70
2023-01-11T08:17:22.858Z,1.80
2023-01-11T08:19:49.629Z,1.90
2023-01-11T08:22:18.125Z,2.17
2023-01-11T08:24:44.956Z,2.00
2023-01-11T08:27:11.834Z,2.15
2023-01-11T08:29:39.828Z,2.28
2023-01-11T08:32:06.683Z,2.30
2023-01-11T08:34:34.732Z,3.47
2023-01-11T08:37:02.180Z,1.88
2023-01-11T08:39:32.138Z,1.98
2023-01-11T08:41:59.674Z,2.28
2023-01-11T08:44:34.044Z,2.00
2023-01-11T08:47:01.685Z,2.53
2023-01-11T08:49:30.397Z,1.50
2023-01-11T08:51:57.267Z,1.75
2023-01-11T08:54:24.949Z,1.65
2023-01-11T08:56:51.756Z,2.42
2023-01-11T08:59:19.976Z,1.80
2023-01-11T09:01:47.273Z,1.52
2023-01-11T09:04:24.166Z,1.85
2023-01-11T09:06:52.612Z,2.00
2023-01-11T09:09:19.449Z,2.45
2023-01-11T09:11:54.911Z,2.72
2023-01-11T09:14:22.836Z,2.70
2023-01-11T09:16:49.639Z,3.75
2023-01-11T09:19:16.391Z,3.55
2023-01-11T09:21:44.688Z,2.90
2023-01-11T09:24:11.474Z,2.38
2023-01-11T09:26:38.480Z,2.67
2023-01-11T09:29:05.492Z,2.20
2023-01-11T09:31:32.476Z,2.05
2023-01-11T09:33:59.243Z,2.20
2023-01-11T09:36:27.842Z,1.90
2023-01-11T09:38:57.523Z,2.05
2023-01-11T09:41:39.197Z,3.03
2023-01-11T09:44:16.167Z,1.95
2023-01-11T09:46:45.220Z,2.03
2023-01-11T09:49:19.029Z,3.42
2023-01-11T09:51:46.336Z,1.73
2023-01-11T09:54:23.098Z,2.47
2023-01-11T09:56:54.789Z,1.90
2023-01-11T09:59:27.161Z,2.00
2023-01-11T10:02:08.058Z,2.22
2023-01-11T10:04:51.981Z,1.70
2023-01-11T10:07:38.054Z,2.90
2023-01-11T10:18:22.844Z,2.33
2023-01-11T10:18:32.083Z,3.05
2023-01-11T10:20:13.534Z,2.13
2023-01-11T10:22:43.717Z,1.75
2023-01-11T10:25:18.805Z,1.88
2023-01-11T10:28:13.220Z,1.42
2023-01-11T10:30:58.892Z,1.52
2023-01-11T10:33:43.933Z,2.10
2023-01-11T10:36:55.630Z,2.95
2023-01-11T10:39:50.228Z,2.22
2023-01-11T10:42:24.271Z,2.20
2023-01-11T10:44:54.052Z,2.17
2023-01-11T10:47:23.820Z,2.22
2023-01-11T10:50:21.710Z,1.90
2023-01-11T10:52:51.544Z,2.83
2023-01-11T10:55:43.744Z,2.35
2023-01-11T10:58:46.051Z,3.25
2023-01-11T11:01:32.939Z,2.15
2023-01-11T11:04:30.024Z,1.75
2023-01-11T11:06:59.581Z,2.30
2023-01-11T11:09:47.364Z,2.42
2023-01-11T11:12:28.518Z,2.65
2023-01-11T11:15:13.476Z,2.42
2023-01-11T11:17:41.150Z,2.50
2023-01-11T11:20:24.387Z,1.90
2023-01-11T11:22:51.935Z,3.15
2023-01-11T11:25:31.851Z,2.22
2023-01-11T11:28:23.559Z,2.80
2023-01-11T11:30:52.869Z,3.63
2023-01-11T11:33:23.663Z,1.95
2023-01-11T11:36:01.362Z,2.13
2023-01-11T11:38:32.327Z,2.95
2023-01-11T11:41:12.178Z,2.22
2023-01-11T11:43:40.230Z,2.65
2023-01-11T11:46:19.354Z,2.45
2023-01-11T11:49:17.974Z,3.15
2023-01-11T11:51:45.653Z,2.67
2023-01-11T11:54:37.518Z,2.35
2023-01-11T11:57:25.144Z,2.15
2023-01-11T12:00:06.786Z,2.88
2023-01-11T12:02:34.289Z,3.03
2023-01-11T12:05:05.075Z,2.53
2023-01-11T12:07:53.922Z,2.40
2023-01-11T12:10:24.156Z,2.05
2023-01-11T12:12:54.628Z,2.35
2023-01-11T12:15:25.618Z,1.55
2023-01-11T12:17:52.502Z,1.90
2023-01-11T12:20:22.261Z,3.38
2023-01-11T12:23:09.618Z,1.92
2023-01-11T12:25:39.611Z,1.77
2023-01-11T12:28:28.484Z,1.70
2023-01-11T12:31:13.517Z,1.40
2023-01-11T12:33:58.850Z,1.95
2023-01-11T12:36:48.787Z,1.17
2023-01-11T12:39:24.996Z,1.30
2023-01-11T12:42:12.021Z,1.33
2023-01-11T12:45:07.141Z,1.40
2023-01-11T12:47:52.791Z,1.55
2023-01-11T12:50:27.035Z,3.08
2023-01-11T12:52:56.821Z,3.47
2023-01-11T12:55:42.137Z,1.90
2023-01-11T12:58:29.530Z,2.33
2023-01-11T13:01:40.574Z,1.73
2023-01-11T13:04:40.009Z,2.10
2023-01-11T13:07:20.072Z,1.60
2023-01-11T13:10:05.664Z,1.70
2023-01-11T13:12:46.481Z,2.03
2023-01-11T13:15:18.545Z,1.70
2023-01-11T13:17:52.024Z,1.77
2023-01-11T13:20:59.439Z,1.90
2023-01-11T13:23:36.759Z,2.23
2023-01-11T13:26:16.787Z,2.23
2023-01-11T13:28:44.468Z,2.00
2023-01-11T13:31:12.540Z,2.10
2023-01-11T13:33:42.251Z,1.90
2023-01-11T13:36:22.700Z,1.50
2023-01-11T13:39:10.670Z,1.67
2023-01-11T13:41:46.653Z,2.07
2023-01-11T13:44:20.621Z,1.52
2023-01-11T13:47:04.950Z,1.70
2023-01-11T13:49:55.838Z,1.95
2023-01-11T13:52:25.445Z,3.80
2023-01-11T13:54:58.686Z,1.60
2023-01-11T13:57:31.453Z,1.50
2023-01-11T14:00:04.626Z,1.40
2023-01-11T14:02:42.657Z,1.67
2023-01-11T14:05:18.186Z,1.47
2023-01-11T14:08:00.891Z,1.67
2023-01-11T14:10:42.630Z,2.30
2023-01-11T14:13:41.360Z,1.63
2023-01-11T14:16:21.439Z,2.20
2023-01-11T14:18:57.693Z,1.83
2023-01-11T14:21:39.858Z,2.13
2023-01-11T14:24:06.689Z,2.43
2023-01-11T14:26:59.169Z,1.60
2023-01-11T14:29:59.028Z,1.77
2023-01-11T14:32:42.370Z,2.30
2023-01-11T14:35:27.677Z,1.70
2023-01-11T14:38:06.439Z,1.73
2023-01-11T14:40:54.832Z,1.70
2023-01-11T14:43:39.651Z,1.42
2023-01-11T14:46:30.948Z,1.33
2023-01-11T14:49:02.929Z,1.70
2023-01-11T14:51:33.080Z,1.70
2023-01-11T14:54:12.534Z,1.93
2023-01-11T14:56:42.451Z,1.95
2023-01-11T14:59:41.800Z,1.87
2023-01-11T15:02:11.307Z,1.50
2023-01-11T15:04:58.861Z,1.80
2023-01-11T15:07:34.623Z,1.40
2023-01-11T15:10:04.368Z,1.70
2023-01-11T15:12:37.958Z,1.52
2023-01-11T15:15:13.620Z,1.90
2023-01-11T15:17:59.372Z,2.40
2023-01-11T15:20:26.705Z,2.43
2023-01-11T15:23:03.703Z,3.50
2023-01-11T15:25:34.161Z,3.67
2023-01-11T15:28:05.464Z,2.15
2023-01-11T15:30:32.201Z,1.90
2023-01-11T15:33:27.720Z,3.27
2023-01-11T15:35:57.200Z,1.90
2023-01-11T15:38:52.975Z,1.65
2023-01-11T15:41:52.635Z,1.88
2023-01-11T15:44:33.808Z,3.42
2023-01-11T15:47:15.046Z,1.83
2023-01-11T15:50:09.221Z,1.70
2023-01-11T15:52:41.628Z,2.38
2023-01-11T15:55:17.288Z,1.65
2023-01-11T15:58:12.899Z,1.63
2023-01-11T16:00:46.099Z,3.25
2023-01-11T16:03:24.617Z,2.30
2023-01-11T16:06:12.283Z,2.40
2023-01-11T16:08:42.795Z,1.80
2023-01-11T16:11:17.176Z,2.10
2023-01-11T16:13:48.405Z,1.88
2023-01-11T16:16:32.432Z,1.80
2023-01-11T16:19:26.671Z,1.77
2023-01-11T16:21:56.824Z,1.98
2023-01-11T16:24:29.439Z,2.20
2023-01-11T16:26:57.365Z,2.95
2023-01-11T16:29:34.651Z,2.60
2023-01-11T16:32:05.093Z,2.60
2023-01-11T16:34:42.738Z,2.85
2023-01-11T16:37:31.941Z,2.35
2023-01-11T16:40:20.811Z,2.80
2023-01-11T16:42:57.177Z,2.92
2023-01-11T16:45:25.816Z,2.50
2023-01-11T16:48:02.497Z,3.65
2023-01-11T16:50:29.270Z,3.80
2023-01-11T16:53:00.659Z,3.90
2023-01-11T16:55:34.812Z,3.08
2023-01-11T16:58:25.641Z,2.72
2023-01-11T17:01:13.553Z,2.60
2023-01-11T17:03:49.672Z,2.35
2023-01-11T17:06:20.732Z,2.50
2023-01-11T17:08:50.334Z,4.30
2023-01-11T17:11:37.216Z,2.85
2023-01-11T17:14:12.928Z,4.10
2023-01-11T17:16:44.828Z,4.40
2023-01-11T17:19:16.648Z,5.80
2023-01-11T17:21:54.228Z,5.10
2023-01-11T17:24:26.234Z,4.00
2023-01-11T17:26:56.258Z,4.82
2023-01-11T17:29:37.330Z,6.88
2023-01-11T17:32:05.895Z,4.03
2023-01-11T17:34:34.938Z,3.20
2023-01-11T17:37:10.385Z,3.65
2023-01-11T17:39:44.329Z,3.17
2023-01-11T17:42:31.354Z,3.92
2023-01-11T17:45:12.960Z,3.25
2023-01-11T17:47:51.059Z,4.03
2023-01-11T17:50:28.362Z,2.40
2023-01-11T17:53:06.110Z,4.25
2023-01-11T17:55:33.318Z,2.42
2023-01-11T17:58:11.393Z,2.30
2023-01-11T18:00:38.151Z,2.10
2023-01-11T18:03:18.415Z,2.40
2023-01-11T18:05:45.215Z,2.63
2023-01-11T18:08:20.741Z,2.40
2023-01-11T18:10:55.344Z,2.40
2023-01-11T18:13:27.794Z,3.13
2023-01-11T18:15:54.592Z,5.07
2023-01-11T18:18:45.254Z,6.50
2023-01-11T18:21:41.938Z,7.90
2023-01-11T18:24:11.883Z,9.35
2023-01-11T18:26:39.701Z,8.35
2023-01-11T18:29:06.489Z,9.60
2023-01-11T18:31:33.281Z,6.68
2023-01-11T18:34:00.083Z,7.53
2023-01-11T18:36:28.430Z,5.95
2023-01-11T18:38:55.302Z,9.65
2023-01-11T18:41:40.390Z,5.75
2023-01-11T18:44:10.693Z,5.35
2023-01-11T18:46:37.589Z,4.47
2023-01-11T18:49:04.334Z,5.85
2023-01-11T18:51:35.496Z,6.10
2023-01-11T18:54:02.303Z,5.03
2023-01-11T18:56:29.052Z,5.05
2023-01-11T18:58:55.868Z,6.45
2023-01-11T19:01:22.712Z,4.90
2023-01-11T19:03:51.567Z,6.80
2023-01-11T19:06:21.057Z,7.65
2023-01-11T19:08:47.773Z,7.03
2023-01-11T19:11:16.426Z,6.40
2023-01-11T19:13:45.078Z,6.55
2023-01-11T19:16:13.336Z,7.88
2023-01-11T19:18:40.259Z,8.18
2023-01-11T19:21:09.169Z,6.97
2023-01-11T19:23:36.000Z,9.55
2023-01-11T19:26:02.884Z,7.05
2023-01-11T19:28:29.962Z,9.55
2023-01-11T19:30:56.779Z,8.07
2023-01-11T19:33:23.548Z,7.18
2023-01-11T19:35:50.327Z,7.28
2023-01-11T19:38:18.474Z,7.28
2023-01-11T19:40:50.361Z,5.80
2023-01-11T19:43:17.519Z,6.10
2023-01-11T19:45:44.289Z,5.90
2023-01-11T19:48:12.332Z,5.30
2023-01-11T19:50:39.081Z,5.25
2023-01-11T19:53:05.852Z,5.78
2023-01-11T19:55:32.646Z,5.30
2023-01-11T19:57:59.531Z,5.28
2023-01-11T20:00:26.311Z,5.97
2023-01-11T20:02:53.193Z,5.40
2023-01-11T20:05:19.971Z,4.68
2023-01-11T20:07:46.774Z,5.70
2023-01-11T20:10:13.523Z,5.47
2023-01-11T20:12:40.288Z,6.03
2023-01-11T20:15:07.622Z,6.30
2023-01-11T20:17:36.538Z,5.30
2023-01-11T20:20:04.047Z,4.85
2023-01-11T20:22:31.372Z,4.18
2023-01-11T20:24:58.167Z,5.50
2023-01-11T20:27:27.299Z,5.60
2023-01-11T20:29:54.431Z,5.80
2023-01-11T20:32:39.832Z,7.25
2023-01-11T20:35:08.131Z,6.88
2023-01-11T20:37:34.855Z,6.75
2023-01-11T20:40:01.544Z,6.10
2023-01-11T20:42:28.386Z,5.80
2023-01-11T20:44:55.064Z,5.18
2023-01-11T20:47:21.783Z,4.00
2023-01-11T20:49:48.614Z,3.92
2023-01-11T20:52:15.424Z,4.00
2023-01-11T20:54:42.183Z,5.55
2023-01-11T20:57:12.408Z,3.90
2023-01-11T20:59:39.348Z,4.47
2023-01-11T21:02:07.570Z,3.97
2023-01-11T21:04:35.744Z,3.67
2023-01-11T21:07:02.687Z,3.47
2023-01-11T21:09:29.431Z,3.63
2023-01-11T21:11:56.191Z,3.25
2023-01-11T21:14:23.052Z,3.35
2023-01-11T21:16:49.882Z,4.72
2023-01-11T21:19:16.783Z,2.60
2023-01-11T21:21:43.849Z,3.03
2023-01-11T21:24:12.480Z,2.88
2023-01-11T21:26:39.458Z,2.40
2023-01-11T21:29:06.284Z,3.85
2023-01-11T21:31:34.518Z,3.15
2023-01-11T21:34:01.417Z,3.17
2023-01-11T21:36:29.224Z,4.13
2023-01-11T21:38:56.894Z,4.47
2023-01-11T21:41:51.669Z,5.95
2023-01-11T21:44:19.005Z,4.82
2023-01-11T21:46:45.852Z,4.72
2023-01-11T21:49:12.812Z,4.85
2023-01-11T21:51:39.887Z,3.88
2023-01-11T21:54:08.108Z,3.80
2023-01-11T21:56:35.214Z,4.30
2023-01-11T21:59:02.052Z,4.10
2023-01-11T22:01:28.936Z,3.67
2023-01-11T22:03:55.891Z,3.80
2023-01-11T22:06:22.700Z,3.35
2023-01-11T22:08:49.466Z,3.30
2023-01-11T22:11:17.092Z,3.72
2023-01-11T22:13:43.997Z,3.73
2023-01-11T22:16:12.406Z,4.22
2023-01-11T22:18:41.081Z,3.60
2023-01-11T22:21:12.764Z,4.07
2023-01-11T22:23:39.814Z,4.75
2023-01-11T22:26:17.199Z,3.60
2023-01-11T22:29:03.230Z,4.18
2023-01-11T22:31:30.866Z,5.20
2023-01-11T22:33:57.829Z,5.63
2023-01-11T22:36:24.967Z,4.45
2023-01-11T22:38:52.221Z,4.40
2023-01-11T22:41:19.210Z,4.70
2023-01-11T22:43:46.180Z,6.97
2023-01-11T22:46:14.580Z,3.88
2023-01-11T22:48:41.490Z,4.50
2023-01-11T22:51:08.858Z,3.38
2023-01-11T22:53:39.687Z,4.18
2023-01-11T22:56:06.967Z,3.20
2023-01-11T22:58:35.052Z,4.00
2023-01-11T23:01:14.650Z,4.00
2023-01-11T23:03:41.930Z,3.25
2023-01-11T23:06:09.107Z,3.60
2023-01-11T23:08:41.415Z,3.10
2023-01-11T23:11:36.169Z,2.93
2023-01-11T23:14:04.320Z,2.80
2023-01-11T23:16:31.180Z,3.13
2023-01-11T23:18:58.044Z,2.60
2023-01-11T23:21:24.803Z,2.55
2023-01-11T23:23:51.656Z,3.28
2023-01-11T23:26:18.452Z,3.03
2023-01-11T23:28:45.812Z,3.10
2023-01-11T23:31:17.172Z,2.45
2023-01-11T23:33:51.735Z,2.53
2023-01-11T23:36:19.117Z,3.38
2023-01-11T23:38:46.196Z,2.70
2023-01-11T23:41:33.252Z,4.13
2023-01-11T23:44:00.303Z,2.95
2023-01-11T23:46:45.912Z,3.53
2023-01-11T23:49:14.635Z,3.20
2023-01-11T23:51:41.586Z,2.88
2023-01-11T23:54:08.576Z,2.75
2023-01-11T23:56:36.587Z,2.55
2023-01-11T23:59:04.217Z,2.47
